sensor_id;sensor_type;location;lat;lon;timestamp;temperature;humidity
4530;DHT22;2277;51.626;7.516;2023-04-06T00:00:50;7.40;99.90
4530;DHT22;2277;51.626;7.516;2023-04-06T00:03:16;7.30;99.90
4530;DHT22;2277;51.626;7.516;2023-04-06T00:05:42;7.30;99.90
4530;DHT22;2277;51.626;7.516;2023-04-06T00:08:08;7.30;99.90
4530;DHT22;2277;51.626;7.516;2023-04-06T00:10:33;7.30;99.90
4530;DHT22;2277;51.626;7.516;2023-04-06T00:12:59;7.20;99.90
4530;DHT22;2277;51.626;7.516;2023-04-06T00:15:26;7.30;99.90
4530;DHT22;2277;51.626;7.516;2023-04-06T00:17:52;7.20;99.90
4530;DHT22;2277;51.626;7.516;2023-04-06T00:20:18;7.20;99.90
4530;DHT22;2277;51.626;7.516;2023-04-06T00:22:44;7.30;99.90
4530;DHT22;2277;51.626;7.516;2023-04-06T00:25:10;7.30;99.90
4530;DHT22;2277;51.626;7.516;2023-04-06T00:27:37;7.30;99.90
4530;DHT22;2277;51.626;7.516;2023-04-06T00:30:04;7.20;99.90
4530;DHT22;2277;51.626;7.516;2023-04-06T00:32:30;7.10;99.90
4530;DHT22;2277;51.626;7.516;2023-04-06T00:34:56;7.10;99.90
4530;DHT22;2277;51.626;7.516;2023-04-06T00:37:22;7.10;99.90
4530;DHT22;2277;51.626;7.516;2023-04-06T00:39:47;7.00;99.90
4530;DHT22;2277;51.626;7.516;2023-04-06T00:42:14;7.00;99.90
4530;DHT22;2277;51.626;7.516;2023-04-06T00:44:42;7.00;99.90
4530;DHT22;2277;51.626;7.516;2023-04-06T00:47:08;6.90;99.90
4530;DHT22;2277;51.626;7.516;2023-04-06T00:49:34;6.90;99.90
4530;DHT22;2277;51.626;7.516;2023-04-06T00:52:00;6.80;99.90
4530;DHT22;2277;51.626;7.516;2023-04-06T00:54:27;6.80;99.90
4530;DHT22;2277;51.626;7.516;2023-04-06T00:56:53;6.80;99.90
4530;DHT22;2277;51.626;7.516;2023-04-06T00:59:18;6.80;99.90
4530;DHT22;2277;51.626;7.516;2023-04-06T01:01:44;6.80;99.90
4530;DHT22;2277;51.626;7.516;2023-04-06T01:04:10;6.90;99.90
4530;DHT22;2277;51.626;7.516;2023-04-06T01:06:36;6.90;99.90
4530;DHT22;2277;51.626;7.516;2023-04-06T01:09:02;6.80;99.90
4530;DHT22;2277;51.626;7.516;2023-04-06T01:11:27;6.70;99.90
4530;DHT22;2277;51.626;7.516;2023-04-06T01:13:53;6.70;99.90
4530;DHT22;2277;51.626;7.516;2023-04-06T01:16:19;6.70;99.90
4530;DHT22;2277;51.626;7.516;2023-04-06T01:18:44;6.60;99.90
4530;DHT22;2277;51.626;7.516;2023-04-06T01:21:10;6.50;99.90
4530;DHT22;2277;51.626;7.516;2023-04-06T01:23:45;6.50;99.90
4530;DHT22;2277;51.626;7.516;2023-04-06T01:26:12;6.40;99.90
4530;DHT22;2277;51.626;7.516;2023-04-06T01:28:38;6.30;99.90
4530;DHT22;2277;51.626;7.516;2023-04-06T01:31:05;6.20;99.90
4530;DHT22;2277;51.626;7.516;2023-04-06T01:33:31;6.20;99.90
4530;DHT22;2277;51.626;7.516;2023-04-06T01:35:56;6.30;99.90
4530;DHT22;2277;51.626;7.516;2023-04-06T01:38:22;6.30;99.90
4530;DHT22;2277;51.626;7.516;2023-04-06T01:40:48;6.30;99.90
4530;DHT22;2277;51.626;7.516;2023-04-06T01:43:13;6.30;99.90
4530;DHT22;2277;51.626;7.516;2023-04-06T01:45:39;6.30;99.90
4530;DHT22;2277;51.626;7.516;2023-04-06T01:48:06;6.30;99.90
4530;DHT22;2277;51.626;7.516;2023-04-06T01:50:32;6.30;99.90
4530;DHT22;2277;51.626;7.516;2023-04-06T01:52:58;6.30;99.90
4530;DHT22;2277;51.626;7.516;2023-04-06T01:55:23;6.20;99.90
4530;DHT22;2277;51.626;7.516;2023-04-06T01:57:49;6.30;99.90
4530;DHT22;2277;51.626;7.516;2023-04-06T02:00:16;6.20;99.90
4530;DHT22;2277;51.626;7.516;2023-04-06T02:02:41;6.20;99.90
4530;DHT22;2277;51.626;7.516;2023-04-06T02:05:08;6.20;99.90
4530;DHT22;2277;51.626;7.516;2023-04-06T02:07:33;6.10;99.90
4530;DHT22;2277;51.626;7.516;2023-04-06T02:09:59;6.10;99.90
4530;DHT22;2277;51.626;7.516;2023-04-06T02:12:25;6.20;99.90
4530;DHT22;2277;51.626;7.516;2023-04-06T02:14:50;6.20;99.90
4530;DHT22;2277;51.626;7.516;2023-04-06T02:17:16;6.20;99.90
4530;DHT22;2277;51.626;7.516;2023-04-06T02:19:42;6.20;99.90
4530;DHT22;2277;51.626;7.516;2023-04-06T02:22:08;6.10;99.90
4530;DHT22;2277;51.626;7.516;2023-04-06T02:24:34;6.10;99.90
4530;DHT22;2277;51.626;7.516;2023-04-06T02:27:01;6.00;99.90
4530;DHT22;2277;51.626;7.516;2023-04-06T02:29:26;6.00;99.90
4530;DHT22;2277;51.626;7.516;2023-04-06T02:31:52;5.90;99.90
4530;DHT22;2277;51.626;7.516;2023-04-06T02:34:18;5.90;99.90
4530;DHT22;2277;51.626;7.516;2023-04-06T02:36:44;5.80;99.90
4530;DHT22;2277;51.626;7.516;2023-04-06T02:39:10;5.80;99.90
4530;DHT22;2277;51.626;7.516;2023-04-06T02:41:36;5.80;99.90
4530;DHT22;2277;51.626;7.516;2023-04-06T02:44:02;5.80;99.90
4530;DHT22;2277;51.626;7.516;2023-04-06T02:46:28;5.80;99.90
4530;DHT22;2277;51.626;7.516;2023-04-06T02:48:54;5.90;99.90
4530;DHT22;2277;51.626;7.516;2023-04-06T02:51:20;5.90;99.90
4530;DHT22;2277;51.626;7.516;2023-04-06T02:53:46;5.90;99.90
4530;DHT22;2277;51.626;7.516;2023-04-06T02:56:11;6.00;99.90
4530;DHT22;2277;51.626;7.516;2023-04-06T02:58:37;5.90;99.90
4530;DHT22;2277;51.626;7.516;2023-04-06T03:01:03;5.80;99.90
4530;DHT22;2277;51.626;7.516;2023-04-06T03:03:29;5.80;99.90
4530;DHT22;2277;51.626;7.516;2023-04-06T03:05:55;5.70;99.90
4530;DHT22;2277;51.626;7.516;2023-04-06T03:08:24;5.70;99.90
4530;DHT22;2277;51.626;7.516;2023-04-06T03:10:50;5.70;99.90
4530;DHT22;2277;51.626;7.516;2023-04-06T03:13:16;5.60;99.90
4530;DHT22;2277;51.626;7.516;2023-04-06T03:15:41;5.70;99.90
4530;DHT22;2277;51.626;7.516;2023-04-06T03:18:07;5.60;99.90
4530;DHT22;2277;51.626;7.516;2023-04-06T03:20:33;5.60;99.90
4530;DHT22;2277;51.626;7.516;2023-04-06T03:22:58;5.60;99.90
4530;DHT22;2277;51.626;7.516;2023-04-06T03:25:24;5.60;99.90
4530;DHT22;2277;51.626;7.516;2023-04-06T03:27:50;5.50;99.90
4530;DHT22;2277;51.626;7.516;2023-04-06T03:30:15;5.50;99.90
4530;DHT22;2277;51.626;7.516;2023-04-06T03:32:44;5.40;99.90
4530;DHT22;2277;51.626;7.516;2023-04-06T03:35:10;5.40;99.90
4530;DHT22;2277;51.626;7.516;2023-04-06T03:37:36;5.40;99.90
4530;DHT22;2277;51.626;7.516;2023-04-06T03:40:02;5.30;99.90
4530;DHT22;2277;51.626;7.516;2023-04-06T03:42:28;5.30;99.90
4530;DHT22;2277;51.626;7.516;2023-04-06T03:44:54;5.30;99.90
4530;DHT22;2277;51.626;7.516;2023-04-06T03:47:20;5.20;99.90
4530;DHT22;2277;51.626;7.516;2023-04-06T03:49:45;5.10;99.90
4530;DHT22;2277;51.626;7.516;2023-04-06T03:52:11;5.10;99.90
4530;DHT22;2277;51.626;7.516;2023-04-06T03:54:37;5.10;99.90
4530;DHT22;2277;51.626;7.516;2023-04-06T03:57:03;5.10;99.90
4530;DHT22;2277;51.626;7.516;2023-04-06T03:59:29;5.10;99.90
4530;DHT22;2277;51.626;7.516;2023-04-06T04:01:55;5.10;99.90
4530;DHT22;2277;51.626;7.516;2023-04-06T04:04:20;5.10;99.90
4530;DHT22;2277;51.626;7.516;2023-04-06T04:06:46;5.00;99.90
4530;DHT22;2277;51.626;7.516;2023-04-06T04:09:12;4.90;99.90
4530;DHT22;2277;51.626;7.516;2023-04-06T04:11:37;4.90;99.90
4530;DHT22;2277;51.626;7.516;2023-04-06T04:14:03;4.80;99.90
4530;DHT22;2277;51.626;7.516;2023-04-06T04:16:29;4.80;99.90
4530;DHT22;2277;51.626;7.516;2023-04-06T04:18:55;4.80;99.90
4530;DHT22;2277;51.626;7.516;2023-04-06T04:21:20;4.80;99.90
4530;DHT22;2277;51.626;7.516;2023-04-06T04:23:46;4.80;99.90
4530;DHT22;2277;51.626;7.516;2023-04-06T04:26:12;4.70;99.90
4530;DHT22;2277;51.626;7.516;2023-04-06T04:28:37;4.70;99.90
4530;DHT22;2277;51.626;7.516;2023-04-06T04:31:03;4.70;99.90
4530;DHT22;2277;51.626;7.516;2023-04-06T04:33:28;4.70;99.90
4530;DHT22;2277;51.626;7.516;2023-04-06T04:35:54;4.70;99.90
4530;DHT22;2277;51.626;7.516;2023-04-06T04:38:20;4.70;99.90
4530;DHT22;2277;51.626;7.516;2023-04-06T04:40:46;4.70;99.90
4530;DHT22;2277;51.626;7.516;2023-04-06T04:43:11;4.60;99.90
4530;DHT22;2277;51.626;7.516;2023-04-06T04:45:37;4.60;99.90
4530;DHT22;2277;51.626;7.516;2023-04-06T04:48:02;4.70;99.90
4530;DHT22;2277;51.626;7.516;2023-04-06T04:50:30;4.70;99.90
4530;DHT22;2277;51.626;7.516;2023-04-06T04:52:55;4.60;99.90
4530;DHT22;2277;51.626;7.516;2023-04-06T04:55:21;4.60;99.90
4530;DHT22;2277;51.626;7.516;2023-04-06T04:57:47;4.50;99.90
4530;DHT22;2277;51.626;7.516;2023-04-06T05:00:13;4.50;99.90
4530;DHT22;2277;51.626;7.516;2023-04-06T05:02:38;4.60;99.90
4530;DHT22;2277;51.626;7.516;2023-04-06T05:05:05;4.60;99.90
4530;DHT22;2277;51.626;7.516;2023-04-06T05:07:31;4.60;99.90
4530;DHT22;2277;51.626;7.516;2023-04-06T05:09:56;4.60;99.90
4530;DHT22;2277;51.626;7.516;2023-04-06T05:12:22;4.60;99.90
4530;DHT22;2277;51.626;7.516;2023-04-06T05:14:48;4.50;99.90
4530;DHT22;2277;51.626;7.516;2023-04-06T05:17:13;4.50;99.90
4530;DHT22;2277;51.626;7.516;2023-04-06T05:19:39;4.50;99.90
4530;DHT22;2277;51.626;7.516;2023-04-06T05:22:05;4.50;99.90
4530;DHT22;2277;51.626;7.516;2023-04-06T05:24:30;4.50;99.90
4530;DHT22;2277;51.626;7.516;2023-04-06T05:26:56;4.40;99.90
4530;DHT22;2277;51.626;7.516;2023-04-06T05:29:22;4.30;99.90
4530;DHT22;2277;51.626;7.516;2023-04-06T05:31:47;4.20;99.90
4530;DHT22;2277;51.626;7.516;2023-04-06T05:34:13;4.20;99.90
4530;DHT22;2277;51.626;7.516;2023-04-06T05:36:39;4.30;99.90
4530;DHT22;2277;51.626;7.516;2023-04-06T05:39:06;4.30;99.90
4530;DHT22;2277;51.626;7.516;2023-04-06T05:41:32;4.40;99.90
4530;DHT22;2277;51.626;7.516;2023-04-06T05:43:58;4.40;99.90
4530;DHT22;2277;51.626;7.516;2023-04-06T05:46:24;4.40;99.90
4530;DHT22;2277;51.626;7.516;2023-04-06T05:48:49;4.50;99.90
4530;DHT22;2277;51.626;7.516;2023-04-06T05:51:15;4.50;99.90
4530;DHT22;2277;51.626;7.516;2023-04-06T05:53:40;4.50;99.90
4530;DHT22;2277;51.626;7.516;2023-04-06T05:56:06;4.60;99.90
4530;DHT22;2277;51.626;7.516;2023-04-06T05:58:32;4.60;99.90
4530;DHT22;2277;51.626;7.516;2023-04-06T06:01:01;4.60;99.90
4530;DHT22;2277;51.626;7.516;2023-04-06T06:03:26;4.70;99.90
4530;DHT22;2277;51.626;7.516;2023-04-06T06:05:52;4.70;99.90
4530;DHT22;2277;51.626;7.516;2023-04-06T06:08:18;4.80;99.90
4530;DHT22;2277;51.626;7.516;2023-04-06T06:10:43;4.80;99.90
4530;DHT22;2277;51.626;7.516;2023-04-06T06:13:09;4.80;99.90
4530;DHT22;2277;51.626;7.516;2023-04-06T06:15:35;4.90;99.90
4530;DHT22;2277;51.626;7.516;2023-04-06T06:18:01;4.90;99.90
4530;DHT22;2277;51.626;7.516;2023-04-06T06:20:27;4.80;99.90
4530;DHT22;2277;51.626;7.516;2023-04-06T06:22:52;4.90;99.90
4530;DHT22;2277;51.626;7.516;2023-04-06T06:25:18;4.90;99.90
4530;DHT22;2277;51.626;7.516;2023-04-06T06:27:44;4.80;99.90
4530;DHT22;2277;51.626;7.516;2023-04-06T06:30:10;4.80;99.90
4530;DHT22;2277;51.626;7.516;2023-04-06T06:32:35;4.90;99.90
4530;DHT22;2277;51.626;7.516;2023-04-06T06:35:01;4.90;99.90
4530;DHT22;2277;51.626;7.516;2023-04-06T06:37:28;4.90;99.90
4530;DHT22;2277;51.626;7.516;2023-04-06T06:39:53;5.10;99.90
4530;DHT22;2277;51.626;7.516;2023-04-06T06:42:19;5.20;99.90
4530;DHT22;2277;51.626;7.516;2023-04-06T06:44:44;5.30;99.90
4530;DHT22;2277;51.626;7.516;2023-04-06T06:47:10;5.40;99.90
4530;DHT22;2277;51.626;7.516;2023-04-06T06:49:36;5.60;99.90
4530;DHT22;2277;51.626;7.516;2023-04-06T06:52:02;5.80;99.90
4530;DHT22;2277;51.626;7.516;2023-04-06T06:54:27;5.90;99.90
4530;DHT22;2277;51.626;7.516;2023-04-06T06:56:53;6.10;99.90
4530;DHT22;2277;51.626;7.516;2023-04-06T06:59:20;6.30;99.90
4530;DHT22;2277;51.626;7.516;2023-04-06T07:01:46;6.50;99.90
4530;DHT22;2277;51.626;7.516;2023-04-06T07:04:11;6.60;99.90
4530;DHT22;2277;51.626;7.516;2023-04-06T07:06:37;6.80;99.90
4530;DHT22;2277;51.626;7.516;2023-04-06T07:09:03;7.00;99.90
4530;DHT22;2277;51.626;7.516;2023-04-06T07:11:29;7.20;99.90
4530;DHT22;2277;51.626;7.516;2023-04-06T07:13:55;7.40;99.90
4530;DHT22;2277;51.626;7.516;2023-04-06T07:16:21;7.60;99.90
4530;DHT22;2277;51.626;7.516;2023-04-06T07:18:46;7.80;99.90
4530;DHT22;2277;51.626;7.516;2023-04-06T07:21:12;8.00;99.90
4530;DHT22;2277;51.626;7.516;2023-04-06T07:23:38;8.20;99.90
4530;DHT22;2277;51.626;7.516;2023-04-06T07:26:04;8.30;99.90
4530;DHT22;2277;51.626;7.516;2023-04-06T07:28:30;8.50;99.90
4530;DHT22;2277;51.626;7.516;2023-04-06T07:30:55;8.70;99.90
4530;DHT22;2277;51.626;7.516;2023-04-06T07:33:21;8.90;99.90
4530;DHT22;2277;51.626;7.516;2023-04-06T07:35:47;9.00;99.90
4530;DHT22;2277;51.626;7.516;2023-04-06T07:38:13;9.20;99.90
4530;DHT22;2277;51.626;7.516;2023-04-06T07:40:38;9.50;99.90
4530;DHT22;2277;51.626;7.516;2023-04-06T07:43:04;9.60;99.90
4530;DHT22;2277;51.626;7.516;2023-04-06T07:45:30;9.80;99.90
4530;DHT22;2277;51.626;7.516;2023-04-06T07:47:56;10.00;99.90
4530;DHT22;2277;51.626;7.516;2023-04-06T07:50:22;10.20;99.90
4530;DHT22;2277;51.626;7.516;2023-04-06T07:52:48;10.40;97.90
4530;DHT22;2277;51.626;7.516;2023-04-06T07:55:14;10.40;93.00
4530;DHT22;2277;51.626;7.516;2023-04-06T07:57:39;10.50;93.10
4530;DHT22;2277;51.626;7.516;2023-04-06T08:00:05;10.50;90.30
4530;DHT22;2277;51.626;7.516;2023-04-06T08:02:31;10.70;90.30
4530;DHT22;2277;51.626;7.516;2023-04-06T08:04:57;11.00;88.90
4530;DHT22;2277;51.626;7.516;2023-04-06T08:07:23;11.20;88.10
4530;DHT22;2277;51.626;7.516;2023-04-06T08:09:49;11.40;86.40
4530;DHT22;2277;51.626;7.516;2023-04-06T08:12:14;11.60;85.40
4530;DHT22;2277;51.626;7.516;2023-04-06T08:14:40;11.80;84.20
4530;DHT22;2277;51.626;7.516;2023-04-06T08:17:06;12.10;81.80
4530;DHT22;2277;51.626;7.516;2023-04-06T08:19:31;12.20;79.20
4530;DHT22;2277;51.626;7.516;2023-04-06T08:21:57;12.40;80.90
4530;DHT22;2277;51.626;7.516;2023-04-06T08:24:23;12.50;80.90
4530;DHT22;2277;51.626;7.516;2023-04-06T08:26:48;12.70;77.90
4530;DHT22;2277;51.626;7.516;2023-04-06T08:29:14;12.90;76.50
4530;DHT22;2277;51.626;7.516;2023-04-06T08:31:41;12.80;75.40
4530;DHT22;2277;51.626;7.516;2023-04-06T08:34:07;12.70;74.60
4530;DHT22;2277;51.626;7.516;2023-04-06T08:36:32;12.90;73.80
4530;DHT22;2277;51.626;7.516;2023-04-06T08:38:59;13.10;74.30
4530;DHT22;2277;51.626;7.516;2023-04-06T08:41:25;13.40;74.00
4530;DHT22;2277;51.626;7.516;2023-04-06T08:44:01;13.60;71.50
4530;DHT22;2277;51.626;7.516;2023-04-06T08:46:29;13.50;69.90
4530;DHT22;2277;51.626;7.516;2023-04-06T08:48:59;13.40;69.10
4530;DHT22;2277;51.626;7.516;2023-04-06T08:51:26;13.50;69.20
4530;DHT22;2277;51.626;7.516;2023-04-06T08:53:53;13.50;68.00
4530;DHT22;2277;51.626;7.516;2023-04-06T08:56:24;13.70;68.50
4530;DHT22;2277;51.626;7.516;2023-04-06T08:58:50;13.80;68.20
4530;DHT22;2277;51.626;7.516;2023-04-06T09:01:21;14.10;67.40
4530;DHT22;2277;51.626;7.516;2023-04-06T09:03:48;14.20;67.10
4530;DHT22;2277;51.626;7.516;2023-04-06T09:06:15;14.40;65.90
4530;DHT22;2277;51.626;7.516;2023-04-06T09:08:41;14.60;65.20
4530;DHT22;2277;51.626;7.516;2023-04-06T09:11:07;14.80;64.40
4530;DHT22;2277;51.626;7.516;2023-04-06T09:13:49;14.90;62.40
4530;DHT22;2277;51.626;7.516;2023-04-06T09:16:17;15.00;61.40
4530;DHT22;2277;51.626;7.516;2023-04-06T09:18:43;15.10;61.30
4530;DHT22;2277;51.626;7.516;2023-04-06T09:21:10;15.30;62.60
4530;DHT22;2277;51.626;7.516;2023-04-06T09:23:37;15.40;62.20
4530;DHT22;2277;51.626;7.516;2023-04-06T09:26:10;15.50;59.60
4530;DHT22;2277;51.626;7.516;2023-04-06T09:28:49;15.50;58.60
4530;DHT22;2277;51.626;7.516;2023-04-06T09:31:16;15.30;58.40
4530;DHT22;2277;51.626;7.516;2023-04-06T09:33:44;15.50;58.40
4530;DHT22;2277;51.626;7.516;2023-04-06T09:36:11;15.60;58.30
4530;DHT22;2277;51.626;7.516;2023-04-06T09:38:54;15.90;62.20
4530;DHT22;2277;51.626;7.516;2023-04-06T09:41:22;16.30;59.00
4530;DHT22;2277;51.626;7.516;2023-04-06T09:43:50;16.50;57.60
4530;DHT22;2277;51.626;7.516;2023-04-06T09:46:16;16.00;56.00
4530;DHT22;2277;51.626;7.516;2023-04-06T09:48:43;16.10;56.50
4530;DHT22;2277;51.626;7.516;2023-04-06T09:51:10;16.30;55.80
4530;DHT22;2277;51.626;7.516;2023-04-06T09:53:39;16.00;54.90
4530;DHT22;2277;51.626;7.516;2023-04-06T09:56:09;15.90;55.60
4530;DHT22;2277;51.626;7.516;2023-04-06T09:58:37;16.00;55.50
4530;DHT22;2277;51.626;7.516;2023-04-06T10:01:11;15.80;54.30
4530;DHT22;2277;51.626;7.516;2023-04-06T10:06:27;15.50;54.60
4530;DHT22;2277;51.626;7.516;2023-04-06T10:08:56;15.70;54.00
4530;DHT22;2277;51.626;7.516;2023-04-06T10:11:22;15.50;54.10
4530;DHT22;2277;51.626;7.516;2023-04-06T10:13:48;15.80;53.70
4530;DHT22;2277;51.626;7.516;2023-04-06T10:16:15;15.60;54.10
4530;DHT22;2277;51.626;7.516;2023-04-06T10:18:48;15.70;54.50
4530;DHT22;2277;51.626;7.516;2023-04-06T10:21:21;15.60;54.50
4530;DHT22;2277;51.626;7.516;2023-04-06T10:26:19;15.70;52.70
4530;DHT22;2277;51.626;7.516;2023-04-06T10:28:47;15.80;53.50
4530;DHT22;2277;51.626;7.516;2023-04-06T10:31:13;15.90;53.50
4530;DHT22;2277;51.626;7.516;2023-04-06T10:33:39;15.90;54.30
4530;DHT22;2277;51.626;7.516;2023-04-06T10:36:13;16.00;56.20
4530;DHT22;2277;51.626;7.516;2023-04-06T10:38:40;16.00;54.30
4530;DHT22;2277;51.626;7.516;2023-04-06T10:41:08;16.10;53.00
4530;DHT22;2277;51.626;7.516;2023-04-06T10:43:35;16.20;52.70
4530;DHT22;2277;51.626;7.516;2023-04-06T10:46:06;16.30;51.80
4530;DHT22;2277;51.626;7.516;2023-04-06T10:48:43;16.20;50.60
4530;DHT22;2277;51.626;7.516;2023-04-06T10:51:17;16.10;50.90
4530;DHT22;2277;51.626;7.516;2023-04-06T10:53:47;16.00;51.30
4530;DHT22;2277;51.626;7.516;2023-04-06T10:56:18;15.80;51.90
4530;DHT22;2277;51.626;7.516;2023-04-06T10:58:47;15.90;52.00
4530;DHT22;2277;51.626;7.516;2023-04-06T11:01:17;15.90;50.90
4530;DHT22;2277;51.626;7.516;2023-04-06T11:03:50;15.90;51.00
4530;DHT22;2277;51.626;7.516;2023-04-06T11:06:20;15.70;51.40
4530;DHT22;2277;51.626;7.516;2023-04-06T11:08:46;15.80;51.20
4530;DHT22;2277;51.626;7.516;2023-04-06T11:11:14;15.80;51.80
4530;DHT22;2277;51.626;7.516;2023-04-06T11:13:59;15.90;52.70
4530;DHT22;2277;51.626;7.516;2023-04-06T11:16:31;15.80;52.40
4530;DHT22;2277;51.626;7.516;2023-04-06T11:19:01;16.00;53.00
4530;DHT22;2277;51.626;7.516;2023-04-06T11:21:39;16.10;52.10
4530;DHT22;2277;51.626;7.516;2023-04-06T11:24:24;16.40;52.20
4530;DHT22;2277;51.626;7.516;2023-04-06T11:26:54;16.50;49.80
4530;DHT22;2277;51.626;7.516;2023-04-06T11:29:22;16.60;48.30
4530;DHT22;2277;51.626;7.516;2023-04-06T11:31:50;16.60;49.70
4530;DHT22;2277;51.626;7.516;2023-04-06T11:34:20;16.60;46.60
4530;DHT22;2277;51.626;7.516;2023-04-06T11:36:47;16.70;46.10
4530;DHT22;2277;51.626;7.516;2023-04-06T11:39:21;16.90;46.40
4530;DHT22;2277;51.626;7.516;2023-04-06T11:41:50;16.90;49.10
4530;DHT22;2277;51.626;7.516;2023-04-06T11:44:34;17.00;50.50
4530;DHT22;2277;51.626;7.516;2023-04-06T11:47:01;17.10;50.50
4530;DHT22;2277;51.626;7.516;2023-04-06T11:49:30;17.10;51.60
4530;DHT22;2277;51.626;7.516;2023-04-06T11:51:58;17.10;51.10
4530;DHT22;2277;51.626;7.516;2023-04-06T11:54:37;17.00;50.70
4530;DHT22;2277;51.626;7.516;2023-04-06T11:57:07;17.10;51.60
4530;DHT22;2277;51.626;7.516;2023-04-06T11:59:33;17.30;51.80
4530;DHT22;2277;51.626;7.516;2023-04-06T12:01:59;17.30;51.30
4530;DHT22;2277;51.626;7.516;2023-04-06T12:04:26;17.00;50.70
4530;DHT22;2277;51.626;7.516;2023-04-06T12:06:51;17.10;51.50
4530;DHT22;2277;51.626;7.516;2023-04-06T12:09:17;16.80;50.80
4530;DHT22;2277;51.626;7.516;2023-04-06T12:11:43;16.90;50.70
4530;DHT22;2277;51.626;7.516;2023-04-06T12:14:09;16.90;50.80
4530;DHT22;2277;51.626;7.516;2023-04-06T12:16:35;17.10;51.40
4530;DHT22;2277;51.626;7.516;2023-04-06T12:19:01;17.10;51.40
4530;DHT22;2277;51.626;7.516;2023-04-06T12:21:27;17.20;52.50
4530;DHT22;2277;51.626;7.516;2023-04-06T12:23:54;17.10;49.60
4530;DHT22;2277;51.626;7.516;2023-04-06T12:26:20;17.10;49.60
4530;DHT22;2277;51.626;7.516;2023-04-06T12:28:46;17.00;49.40
4530;DHT22;2277;51.626;7.516;2023-04-06T12:31:19;17.10;50.70
4530;DHT22;2277;51.626;7.516;2023-04-06T12:33:50;17.20;52.20
4530;DHT22;2277;51.626;7.516;2023-04-06T12:36:17;17.30;50.50
4530;DHT22;2277;51.626;7.516;2023-04-06T12:38:49;17.20;50.90
4530;DHT22;2277;51.626;7.516;2023-04-06T12:41:16;17.10;51.30
4530;DHT22;2277;51.626;7.516;2023-04-06T12:43:43;17.10;50.50
4530;DHT22;2277;51.626;7.516;2023-04-06T12:46:09;17.00;50.90
4530;DHT22;2277;51.626;7.516;2023-04-06T12:48:35;17.00;51.40
4530;DHT22;2277;51.626;7.516;2023-04-06T12:51:03;17.10;51.20
4530;DHT22;2277;51.626;7.516;2023-04-06T12:53:29;16.80;51.00
4530;DHT22;2277;51.626;7.516;2023-04-06T12:55:56;16.80;51.30
4530;DHT22;2277;51.626;7.516;2023-04-06T12:58:22;16.80;51.40
4530;DHT22;2277;51.626;7.516;2023-04-06T13:00:49;16.60;51.30
4530;DHT22;2277;51.626;7.516;2023-04-06T13:03:17;16.80;51.90
4530;DHT22;2277;51.626;7.516;2023-04-06T13:05:47;17.00;52.90
4530;DHT22;2277;51.626;7.516;2023-04-06T13:08:13;17.10;53.80
4530;DHT22;2277;51.626;7.516;2023-04-06T13:10:44;17.10;54.50
4530;DHT22;2277;51.626;7.516;2023-04-06T13:13:09;17.20;55.70
4530;DHT22;2277;51.626;7.516;2023-04-06T13:15:36;17.30;56.00
4530;DHT22;2277;51.626;7.516;2023-04-06T13:18:02;17.30;54.90
4530;DHT22;2277;51.626;7.516;2023-04-06T13:20:28;17.40;54.50
4530;DHT22;2277;51.626;7.516;2023-04-06T13:22:54;17.40;53.00
4530;DHT22;2277;51.626;7.516;2023-04-06T13:25:19;17.40;52.90
4530;DHT22;2277;51.626;7.516;2023-04-06T13:27:45;17.20;51.80
4530;DHT22;2277;51.626;7.516;2023-04-06T13:30:13;17.10;51.40
4530;DHT22;2277;51.626;7.516;2023-04-06T13:32:39;16.80;52.50
4530;DHT22;2277;51.626;7.516;2023-04-06T13:35:05;16.90;52.80
4530;DHT22;2277;51.626;7.516;2023-04-06T13:37:31;16.90;54.10
4530;DHT22;2277;51.626;7.516;2023-04-06T13:39:57;16.90;54.20
4530;DHT22;2277;51.626;7.516;2023-04-06T13:42:23;17.00;55.00
4530;DHT22;2277;51.626;7.516;2023-04-06T13:44:49;16.90;54.10
4530;DHT22;2277;51.626;7.516;2023-04-06T13:47:16;16.70;54.70
4530;DHT22;2277;51.626;7.516;2023-04-06T13:49:43;16.70;55.60
4530;DHT22;2277;51.626;7.516;2023-04-06T13:52:09;16.70;55.20
4530;DHT22;2277;51.626;7.516;2023-04-06T13:54:35;16.70;56.90
4530;DHT22;2277;51.626;7.516;2023-04-06T13:57:02;16.70;58.30
4530;DHT22;2277;51.626;7.516;2023-04-06T13:59:46;16.80;56.40
4530;DHT22;2277;51.626;7.516;2023-04-06T14:02:11;16.70;55.80
4530;DHT22;2277;51.626;7.516;2023-04-06T14:04:37;16.50;56.10
4530;DHT22;2277;51.626;7.516;2023-04-06T14:07:03;16.40;57.00
4530;DHT22;2277;51.626;7.516;2023-04-06T14:09:32;16.20;57.10
4530;DHT22;2277;51.626;7.516;2023-04-06T14:11:58;16.10;58.20
4530;DHT22;2277;51.626;7.516;2023-04-06T14:14:23;16.10;59.00
4530;DHT22;2277;51.626;7.516;2023-04-06T14:16:49;16.00;59.20
4530;DHT22;2277;51.626;7.516;2023-04-06T14:19:16;15.90;58.00
4530;DHT22;2277;51.626;7.516;2023-04-06T14:21:46;15.90;58.70
4530;DHT22;2277;51.626;7.516;2023-04-06T14:24:12;15.80;58.90
4530;DHT22;2277;51.626;7.516;2023-04-06T14:26:39;15.80;59.20
4530;DHT22;2277;51.626;7.516;2023-04-06T14:29:05;15.70;60.00
4530;DHT22;2277;51.626;7.516;2023-04-06T14:31:31;15.80;61.20
4530;DHT22;2277;51.626;7.516;2023-04-06T14:33:57;15.90;61.30
4530;DHT22;2277;51.626;7.516;2023-04-06T14:36:23;15.80;60.50
4530;DHT22;2277;51.626;7.516;2023-04-06T14:38:52;15.80;61.50
4530;DHT22;2277;51.626;7.516;2023-04-06T14:41:19;15.70;60.30
4530;DHT22;2277;51.626;7.516;2023-04-06T14:43:48;15.60;60.50
4530;DHT22;2277;51.626;7.516;2023-04-06T14:46:14;15.50;59.80
4530;DHT22;2277;51.626;7.516;2023-04-06T14:48:41;15.40;59.10
4530;DHT22;2277;51.626;7.516;2023-04-06T14:51:06;15.20;59.20
4530;DHT22;2277;51.626;7.516;2023-04-06T14:53:32;15.10;59.90
4530;DHT22;2277;51.626;7.516;2023-04-06T14:55:58;15.10;60.00
4530;DHT22;2277;51.626;7.516;2023-04-06T14:58:25;15.20;61.00
4530;DHT22;2277;51.626;7.516;2023-04-06T15:00:59;15.10;60.60
4530;DHT22;2277;51.626;7.516;2023-04-06T15:03:28;15.00;61.70
4530;DHT22;2277;51.626;7.516;2023-04-06T15:05:55;15.00;61.30
4530;DHT22;2277;51.626;7.516;2023-04-06T15:08:22;15.00;62.30
4530;DHT22;2277;51.626;7.516;2023-04-06T15:10:48;15.00;62.20
4530;DHT22;2277;51.626;7.516;2023-04-06T15:13:13;14.90;63.00
4530;DHT22;2277;51.626;7.516;2023-04-06T15:15:40;14.80;63.70
4530;DHT22;2277;51.626;7.516;2023-04-06T15:18:07;14.60;65.20
4530;DHT22;2277;51.626;7.516;2023-04-06T15:20:32;14.40;67.10
4530;DHT22;2277;51.626;7.516;2023-04-06T15:22:58;14.50;67.50
4530;DHT22;2277;51.626;7.516;2023-04-06T15:25:24;14.40;67.80
4530;DHT22;2277;51.626;7.516;2023-04-06T15:27:49;14.40;68.00
4530;DHT22;2277;51.626;7.516;2023-04-06T15:30:15;14.20;68.50
4530;DHT22;2277;51.626;7.516;2023-04-06T15:33:00;14.20;69.40
4530;DHT22;2277;51.626;7.516;2023-04-06T15:35:27;14.40;69.90
4530;DHT22;2277;51.626;7.516;2023-04-06T15:37:54;14.40;70.70
4530;DHT22;2277;51.626;7.516;2023-04-06T15:40:20;14.30;70.40
4530;DHT22;2277;51.626;7.516;2023-04-06T15:42:45;14.30;70.60
4530;DHT22;2277;51.626;7.516;2023-04-06T15:45:11;14.00;71.50
4530;DHT22;2277;51.626;7.516;2023-04-06T15:47:38;14.10;72.70
4530;DHT22;2277;51.626;7.516;2023-04-06T15:50:04;14.30;73.60
4530;DHT22;2277;51.626;7.516;2023-04-06T15:52:30;14.40;75.20
4530;DHT22;2277;51.626;7.516;2023-04-06T15:54:56;14.30;77.20
4530;DHT22;2277;51.626;7.516;2023-04-06T15:57:22;14.30;78.10
4530;DHT22;2277;51.626;7.516;2023-04-06T15:59:47;14.20;79.20
4530;DHT22;2277;51.626;7.516;2023-04-06T16:02:13;14.00;79.50
4530;DHT22;2277;51.626;7.516;2023-04-06T16:04:39;14.00;82.60
4530;DHT22;2277;51.626;7.516;2023-04-06T16:07:04;14.00;84.50
4530;DHT22;2277;51.626;7.516;2023-04-06T16:09:30;14.10;85.90
4530;DHT22;2277;51.626;7.516;2023-04-06T16:11:55;14.10;86.80